sensor_id;sensor_type;location;lat;lon;timestamp;temperature;humidity
20066;DHT22;10193;48.884;9.182;2023-03-30T00:01:51;17.70;58.70
20066;DHT22;10193;48.884;9.182;2023-03-30T00:04:19;17.70;58.80
20066;DHT22;10193;48.884;9.182;2023-03-30T00:06:51;17.60;58.80
20066;DHT22;10193;48.884;9.182;2023-03-30T00:09:18;17.60;58.80
20066;DHT22;10193;48.884;9.182;2023-03-30T00:11:47;17.50;58.60
20066;DHT22;10193;48.884;9.182;2023-03-30T00:14:13;17.50;58.70
20066;DHT22;10193;48.884;9.182;2023-03-30T00:16:43;17.50;58.70
20066;DHT22;10193;48.884;9.182;2023-03-30T00:19:10;17.40;58.60
20066;DHT22;10193;48.884;9.182;2023-03-30T00:21:37;17.40;58.70
20066;DHT22;10193;48.884;9.182;2023-03-30T00:24:04;17.40;58.70
20066;DHT22;10193;48.884;9.182;2023-03-30T00:26:30;17.40;58.80
20066;DHT22;10193;48.884;9.182;2023-03-30T00:28:57;17.40;59.40
20066;DHT22;10193;48.884;9.182;2023-03-30T00:31:24;17.40;58.80
20066;DHT22;10193;48.884;9.182;2023-03-30T00:33:52;17.40;58.80
20066;DHT22;10193;48.884;9.182;2023-03-30T00:36:19;17.40;58.70
20066;DHT22;10193;48.884;9.182;2023-03-30T00:38:47;17.50;58.80
20066;DHT22;10193;48.884;9.182;2023-03-30T00:41:14;17.50;58.80
20066;DHT22;10193;48.884;9.182;2023-03-30T00:43:58;17.50;58.80
20066;DHT22;10193;48.884;9.182;2023-03-30T00:46:25;17.50;58.10
20066;DHT22;10193;48.884;9.182;2023-03-30T00:48:54;17.50;58.80
20066;DHT22;10193;48.884;9.182;2023-03-30T00:51:23;17.50;58.70
20066;DHT22;10193;48.884;9.182;2023-03-30T00:53:52;17.60;58.80
20066;DHT22;10193;48.884;9.182;2023-03-30T00:56:24;17.50;58.70
20066;DHT22;10193;48.884;9.182;2023-03-30T00:58:52;17.50;58.80
20066;DHT22;10193;48.884;9.182;2023-03-30T01:01:20;17.60;58.90
20066;DHT22;10193;48.884;9.182;2023-03-30T01:03:56;17.60;58.80
20066;DHT22;10193;48.884;9.182;2023-03-30T01:06:25;17.60;58.80
20066;DHT22;10193;48.884;9.182;2023-03-30T01:08:55;17.60;58.80
20066;DHT22;10193;48.884;9.182;2023-03-30T01:11:23;17.60;58.70
20066;DHT22;10193;48.884;9.182;2023-03-30T01:13:54;17.60;58.70
20066;DHT22;10193;48.884;9.182;2023-03-30T01:16:25;17.60;58.60
20066;DHT22;10193;48.884;9.182;2023-03-30T01:19:09;17.60;58.50
20066;DHT22;10193;48.884;9.182;2023-03-30T01:22:03;17.50;58.20
20066;DHT22;10193;48.884;9.182;2023-03-30T01:24:55;17.50;57.90
20066;DHT22;10193;48.884;9.182;2023-03-30T01:28:00;17.40;57.90
20066;DHT22;10193;48.884;9.182;2023-03-30T01:30:40;17.40;58.10
20066;DHT22;10193;48.884;9.182;2023-03-30T01:33:28;17.40;58.60
20066;DHT22;10193;48.884;9.182;2023-03-30T01:39:24;17.40;59.00
20066;DHT22;10193;48.884;9.182;2023-03-30T01:41:56;17.40;59.20
20066;DHT22;10193;48.884;9.182;2023-03-30T01:44:29;17.30;59.30
20066;DHT22;10193;48.884;9.182;2023-03-30T01:47:05;17.30;59.40
20066;DHT22;10193;48.884;9.182;2023-03-30T01:49:38;17.30;59.60
20066;DHT22;10193;48.884;9.182;2023-03-30T01:52:12;17.20;59.70
20066;DHT22;10193;48.884;9.182;2023-03-30T01:54:45;17.30;59.90
20066;DHT22;10193;48.884;9.182;2023-03-30T01:57:15;17.20;60.00
20066;DHT22;10193;48.884;9.182;2023-03-30T01:59:49;17.20;60.20
20066;DHT22;10193;48.884;9.182;2023-03-30T02:02:20;17.20;60.30
20066;DHT22;10193;48.884;9.182;2023-03-30T02:04:49;17.20;60.70
20066;DHT22;10193;48.884;9.182;2023-03-30T02:07:21;17.20;60.40
20066;DHT22;10193;48.884;9.182;2023-03-30T02:09:52;17.20;60.50
20066;DHT22;10193;48.884;9.182;2023-03-30T02:12:19;17.20;60.50
20066;DHT22;10193;48.884;9.182;2023-03-30T02:14:47;17.20;60.60
20066;DHT22;10193;48.884;9.182;2023-03-30T02:17:16;17.20;60.70
20066;DHT22;10193;48.884;9.182;2023-03-30T02:19:44;17.20;60.70
20066;DHT22;10193;48.884;9.182;2023-03-30T02:22:12;17.20;60.90
20066;DHT22;10193;48.884;9.182;2023-03-30T02:24:40;17.20;60.90
20066;DHT22;10193;48.884;9.182;2023-03-30T02:27:09;17.20;61.00
20066;DHT22;10193;48.884;9.182;2023-03-30T02:29:41;17.20;61.00
20066;DHT22;10193;48.884;9.182;2023-03-30T02:32:14;17.20;61.10
20066;DHT22;10193;48.884;9.182;2023-03-30T02:37:45;17.20;60.90
20066;DHT22;10193;48.884;9.182;2023-03-30T02:40:27;17.20;60.90
20066;DHT22;10193;48.884;9.182;2023-03-30T02:43:05;17.20;60.90
20066;DHT22;10193;48.884;9.182;2023-03-30T02:45:43;17.20;60.90
20066;DHT22;10193;48.884;9.182;2023-03-30T02:48:26;17.30;61.10
20066;DHT22;10193;48.884;9.182;2023-03-30T02:53:36;17.20;61.10
20066;DHT22;10193;48.884;9.182;2023-03-30T02:56:13;17.20;61.10
20066;DHT22;10193;48.884;9.182;2023-03-30T02:58:48;17.20;60.90
20066;DHT22;10193;48.884;9.182;2023-03-30T03:01:27;17.20;61.30
20066;DHT22;10193;48.884;9.182;2023-03-30T03:04:03;17.10;61.70
20066;DHT22;10193;48.884;9.182;2023-03-30T03:06:31;17.10;61.90
20066;DHT22;10193;48.884;9.182;2023-03-30T03:08:58;17.20;61.70
20066;DHT22;10193;48.884;9.182;2023-03-30T03:11:28;17.10;61.80
20066;DHT22;10193;48.884;9.182;2023-03-30T03:13:56;17.10;62.20
20066;DHT22;10193;48.884;9.182;2023-03-30T03:16:23;17.10;62.30
20066;DHT22;10193;48.884;9.182;2023-03-30T03:18:50;17.00;62.70
20066;DHT22;10193;48.884;9.182;2023-03-30T03:21:17;17.00;62.80
20066;DHT22;10193;48.884;9.182;2023-03-30T03:23:43;17.00;63.00
20066;DHT22;10193;48.884;9.182;2023-03-30T03:26:12;16.90;63.00
20066;DHT22;10193;48.884;9.182;2023-03-30T03:28:39;16.90;63.10
20066;DHT22;10193;48.884;9.182;2023-03-30T03:31:07;16.90;63.40
20066;DHT22;10193;48.884;9.182;2023-03-30T03:33:34;16.90;63.70
20066;DHT22;10193;48.884;9.182;2023-03-30T03:36:00;16.80;63.70
20066;DHT22;10193;48.884;9.182;2023-03-30T03:38:27;16.80;63.90
20066;DHT22;10193;48.884;9.182;2023-03-30T03:40:57;16.80;64.00
20066;DHT22;10193;48.884;9.182;2023-03-30T03:43:24;16.80;64.20
20066;DHT22;10193;48.884;9.182;2023-03-30T03:45:51;16.80;64.30
20066;DHT22;10193;48.884;9.182;2023-03-30T03:48:21;16.80;64.40
20066;DHT22;10193;48.884;9.182;2023-03-30T03:50:52;16.70;64.40
20066;DHT22;10193;48.884;9.182;2023-03-30T03:53:21;16.70;64.50
20066;DHT22;10193;48.884;9.182;2023-03-30T03:55:48;16.70;64.50
20066;DHT22;10193;48.884;9.182;2023-03-30T03:58:15;16.60;64.50
20066;DHT22;10193;48.884;9.182;2023-03-30T04:07:41;16.50;64.90
20066;DHT22;10193;48.884;9.182;2023-03-30T04:10:19;16.40;64.60
20066;DHT22;10193;48.884;9.182;2023-03-30T04:13:26;16.40;64.30
20066;DHT22;10193;48.884;9.182;2023-03-30T04:20:01;16.20;65.10
20066;DHT22;10193;48.884;9.182;2023-03-30T04:22:52;16.20;65.40
20066;DHT22;10193;48.884;9.182;2023-03-30T04:25:45;16.20;64.80
20066;DHT22;10193;48.884;9.182;2023-03-30T04:31:48;16.10;65.30
20066;DHT22;10193;48.884;9.182;2023-03-30T04:34:25;16.10;66.00
20066;DHT22;10193;48.884;9.182;2023-03-30T04:36:55;16.10;65.60
20066;DHT22;10193;48.884;9.182;2023-03-30T04:40:00;16.10;66.00
20066;DHT22;10193;48.884;9.182;2023-03-30T04:43:37;15.90;66.30
20066;DHT22;10193;48.884;9.182;2023-03-30T05:16:53;15.80;67.30
20066;DHT22;10193;48.884;9.182;2023-03-30T05:20:46;15.70;67.50
20066;DHT22;10193;48.884;9.182;2023-03-30T05:23:06;15.70;67.30
20066;DHT22;10193;48.884;9.182;2023-03-30T05:28:58;15.70;67.50
20066;DHT22;10193;48.884;9.182;2023-03-30T05:31:25;15.90;67.30
20066;DHT22;10193;48.884;9.182;2023-03-30T05:33:53;15.80;67.50
20066;DHT22;10193;48.884;9.182;2023-03-30T05:36:20;15.80;67.70
20066;DHT22;10193;48.884;9.182;2023-03-30T05:38:46;15.80;67.80
20066;DHT22;10193;48.884;9.182;2023-03-30T05:41:13;15.80;67.90
20066;DHT22;10193;48.884;9.182;2023-03-30T05:43:41;15.80;67.90
20066;DHT22;10193;48.884;9.182;2023-03-30T05:46:08;15.80;68.00
20066;DHT22;10193;48.884;9.182;2023-03-30T05:48:35;15.90;68.10
20066;DHT22;10193;48.884;9.182;2023-03-30T05:51:03;15.90;68.10
20066;DHT22;10193;48.884;9.182;2023-03-30T05:53:30;15.90;68.20
20066;DHT22;10193;48.884;9.182;2023-03-30T05:55:56;15.90;68.20
20066;DHT22;10193;48.884;9.182;2023-03-30T05:58:23;15.90;68.30
20066;DHT22;10193;48.884;9.182;2023-03-30T06:00:50;15.90;68.30
20066;DHT22;10193;48.884;9.182;2023-03-30T06:03:18;15.90;68.30
20066;DHT22;10193;48.884;9.182;2023-03-30T06:05:45;15.90;68.40
20066;DHT22;10193;48.884;9.182;2023-03-30T06:08:13;15.90;68.50
20066;DHT22;10193;48.884;9.182;2023-03-30T06:10:40;15.90;68.60
20066;DHT22;10193;48.884;9.182;2023-03-30T06:13:07;15.90;69.60
20066;DHT22;10193;48.884;9.182;2023-03-30T06:15:33;15.90;68.80
20066;DHT22;10193;48.884;9.182;2023-03-30T06:18:00;15.90;68.90
20066;DHT22;10193;48.884;9.182;2023-03-30T06:20:28;15.90;68.90
20066;DHT22;10193;48.884;9.182;2023-03-30T06:22:55;15.90;69.10
20066;DHT22;10193;48.884;9.182;2023-03-30T06:25:23;15.90;69.30
20066;DHT22;10193;48.884;9.182;2023-03-30T06:27:49;15.90;69.30
20066;DHT22;10193;48.884;9.182;2023-03-30T06:30:16;16.00;69.50
20066;DHT22;10193;48.884;9.182;2023-03-30T06:32:43;15.90;69.40
20066;DHT22;10193;48.884;9.182;2023-03-30T06:35:09;15.90;69.50
20066;DHT22;10193;48.884;9.182;2023-03-30T06:37:38;15.90;69.50
20066;DHT22;10193;48.884;9.182;2023-03-30T06:40:06;15.90;69.50
20066;DHT22;10193;48.884;9.182;2023-03-30T06:42:39;15.90;69.50
20066;DHT22;10193;48.884;9.182;2023-03-30T06:45:06;16.00;69.60
20066;DHT22;10193;48.884;9.182;2023-03-30T06:47:33;16.00;69.70
20066;DHT22;10193;48.884;9.182;2023-03-30T06:50:00;16.00;69.70
20066;DHT22;10193;48.884;9.182;2023-03-30T06:52:28;16.00;69.80
20066;DHT22;10193;48.884;9.182;2023-03-30T06:54:55;16.00;69.70
20066;DHT22;10193;48.884;9.182;2023-03-30T06:57:21;16.00;69.70
20066;DHT22;10193;48.884;9.182;2023-03-30T06:59:49;16.00;69.70
20066;DHT22;10193;48.884;9.182;2023-03-30T07:02:16;16.10;69.90
20066;DHT22;10193;48.884;9.182;2023-03-30T07:04:43;16.10;69.90
20066;DHT22;10193;48.884;9.182;2023-03-30T07:07:11;16.10;70.00
20066;DHT22;10193;48.884;9.182;2023-03-30T07:09:38;16.10;70.00
20066;DHT22;10193;48.884;9.182;2023-03-30T07:12:05;16.10;69.90
20066;DHT22;10193;48.884;9.182;2023-03-30T07:14:31;16.10;70.00
20066;DHT22;10193;48.884;9.182;2023-03-30T07:16:59;16.00;69.70
20066;DHT22;10193;48.884;9.182;2023-03-30T07:19:26;16.00;69.60
20066;DHT22;10193;48.884;9.182;2023-03-30T07:21:53;15.90;69.30
20066;DHT22;10193;48.884;9.182;2023-03-30T07:24:20;15.90;69.00
20066;DHT22;10193;48.884;9.182;2023-03-30T07:26:47;15.80;69.00
20066;DHT22;10193;48.884;9.182;2023-03-30T07:29:13;15.70;69.10
20066;DHT22;10193;48.884;9.182;2023-03-30T07:31:41;15.60;69.30
20066;DHT22;10193;48.884;9.182;2023-03-30T07:34:09;15.40;69.60
20066;DHT22;10193;48.884;9.182;2023-03-30T07:36:35;15.30;70.10
20066;DHT22;10193;48.884;9.182;2023-03-30T07:39:02;15.30;70.40
20066;DHT22;10193;48.884;9.182;2023-03-30T07:41:31;15.20;70.70
20066;DHT22;10193;48.884;9.182;2023-03-30T07:43:58;15.10;71.00
20066;DHT22;10193;48.884;9.182;2023-03-30T07:46:24;15.10;71.40
20066;DHT22;10193;48.884;9.182;2023-03-30T07:48:51;15.00;71.80
20066;DHT22;10193;48.884;9.182;2023-03-30T07:51:19;15.00;72.20
20066;DHT22;10193;48.884;9.182;2023-03-30T07:53:47;14.90;72.50
20066;DHT22;10193;48.884;9.182;2023-03-30T07:56:13;14.90;73.00
20066;DHT22;10193;48.884;9.182;2023-03-30T07:58:40;14.90;73.40
20066;DHT22;10193;48.884;9.182;2023-03-30T08:01:07;14.90;73.40
20066;DHT22;10193;48.884;9.182;2023-03-30T08:03:35;14.90;73.60
20066;DHT22;10193;48.884;9.182;2023-03-30T08:06:04;14.90;73.80
20066;DHT22;10193;48.884;9.182;2023-03-30T08:08:33;14.90;73.90
20066;DHT22;10193;48.884;9.182;2023-03-30T08:10:59;14.90;74.00
20066;DHT22;10193;48.884;9.182;2023-03-30T08:13:26;14.90;73.80
20066;DHT22;10193;48.884;9.182;2023-03-30T08:15:53;14.90;73.80
20066;DHT22;10193;48.884;9.182;2023-03-30T08:18:20;14.90;73.80
20066;DHT22;10193;48.884;9.182;2023-03-30T08:20:49;14.80;73.80
20066;DHT22;10193;48.884;9.182;2023-03-30T08:23:17;14.80;74.00
20066;DHT22;10193;48.884;9.182;2023-03-30T08:25:45;14.80;74.40
20066;DHT22;10193;48.884;9.182;2023-03-30T08:28:15;14.80;74.80
20066;DHT22;10193;48.884;9.182;2023-03-30T08:30:42;14.80;74.90
20066;DHT22;10193;48.884;9.182;2023-03-30T08:33:09;14.70;75.10
20066;DHT22;10193;48.884;9.182;2023-03-30T08:35:36;14.80;75.20
20066;DHT22;10193;48.884;9.182;2023-03-30T08:38:02;14.70;75.10
20066;DHT22;10193;48.884;9.182;2023-03-30T08:40:29;14.70;75.30
20066;DHT22;10193;48.884;9.182;2023-03-30T08:43:18;14.70;75.40
20066;DHT22;10193;48.884;9.182;2023-03-30T08:45:47;14.70;75.90
20066;DHT22;10193;48.884;9.182;2023-03-30T08:48:17;14.80;76.20
20066;DHT22;10193;48.884;9.182;2023-03-30T08:50:50;14.80;76.40
20066;DHT22;10193;48.884;9.182;2023-03-30T08:53:17;14.80;76.40
20066;DHT22;10193;48.884;9.182;2023-03-30T08:55:46;14.80;76.30
20066;DHT22;10193;48.884;9.182;2023-03-30T08:58:23;14.80;76.50
20066;DHT22;10193;48.884;9.182;2023-03-30T09:00:58;14.80;76.60
20066;DHT22;10193;48.884;9.182;2023-03-30T09:03:30;14.80;76.60
20066;DHT22;10193;48.884;9.182;2023-03-30T09:06:04;14.90;76.70
20066;DHT22;10193;48.884;9.182;2023-03-30T09:08:33;14.90;76.80
20066;DHT22;10193;48.884;9.182;2023-03-30T09:11:01;14.90;76.90
20066;DHT22;10193;48.884;9.182;2023-03-30T09:13:34;14.90;77.10
20066;DHT22;10193;48.884;9.182;2023-03-30T09:16:10;14.90;77.30
20066;DHT22;10193;48.884;9.182;2023-03-30T09:18:41;14.90;77.60
20066;DHT22;10193;48.884;9.182;2023-03-30T09:21:09;14.90;77.80
20066;DHT22;10193;48.884;9.182;2023-03-30T09:23:38;15.00;78.30
20066;DHT22;10193;48.884;9.182;2023-03-30T09:26:11;15.00;78.60
20066;DHT22;10193;48.884;9.182;2023-03-30T09:28:47;15.00;79.00
20066;DHT22;10193;48.884;9.182;2023-03-30T09:31:17;15.10;79.20
20066;DHT22;10193;48.884;9.182;2023-03-30T09:33:50;15.20;79.20
20066;DHT22;10193;48.884;9.182;2023-03-30T09:36:25;15.20;79.20
20066;DHT22;10193;48.884;9.182;2023-03-30T09:38:52;15.20;79.30
20066;DHT22;10193;48.884;9.182;2023-03-30T09:41:37;15.30;79.70
20066;DHT22;10193;48.884;9.182;2023-03-30T09:46:57;15.40;80.10
20066;DHT22;10193;48.884;9.182;2023-03-30T09:49:26;15.50;80.10
20066;DHT22;10193;48.884;9.182;2023-03-30T09:51:55;15.60;80.10
20066;DHT22;10193;48.884;9.182;2023-03-30T09:54:33;15.60;80.00
20066;DHT22;10193;48.884;9.182;2023-03-30T09:57:00;15.70;79.90
20066;DHT22;10193;48.884;9.182;2023-03-30T09:59:31;15.70;79.70
20066;DHT22;10193;48.884;9.182;2023-03-30T10:02:18;15.80;79.50
20066;DHT22;10193;48.884;9.182;2023-03-30T10:05:00;15.80;78.80
20066;DHT22;10193;48.884;9.182;2023-03-30T10:07:30;15.80;78.60
20066;DHT22;10193;48.884;9.182;2023-03-30T10:09:59;15.90;78.60
20066;DHT22;10193;48.884;9.182;2023-03-30T10:12:28;15.90;78.50
20066;DHT22;10193;48.884;9.182;2023-03-30T10:14:59;15.90;78.30
20066;DHT22;10193;48.884;9.182;2023-03-30T10:17:28;15.90;78.30
20066;DHT22;10193;48.884;9.182;2023-03-30T10:20:15;15.90;78.30
20066;DHT22;10193;48.884;9.182;2023-03-30T10:22:50;15.90;78.00
20066;DHT22;10193;48.884;9.182;2023-03-30T10:25:20;15.90;78.00
20066;DHT22;10193;48.884;9.182;2023-03-30T10:27:49;15.90;78.00
20066;DHT22;10193;48.884;9.182;2023-03-30T10:30:22;15.90;77.90
20066;DHT22;10193;48.884;9.182;2023-03-30T10:32:51;15.90;77.70
20066;DHT22;10193;48.884;9.182;2023-03-30T10:35:20;15.90;77.70
20066;DHT22;10193;48.884;9.182;2023-03-30T10:37:50;15.90;78.60
20066;DHT22;10193;48.884;9.182;2023-03-30T10:40:19;15.90;78.00
20066;DHT22;10193;48.884;9.182;2023-03-30T10:42:49;15.90;78.30
20066;DHT22;10193;48.884;9.182;2023-03-30T10:45:20;15.90;78.80
20066;DHT22;10193;48.884;9.182;2023-03-30T10:47:57;16.00;79.20
20066;DHT22;10193;48.884;9.182;2023-03-30T10:50:31;16.00;79.40
20066;DHT22;10193;48.884;9.182;2023-03-30T10:53:10;16.10;79.60
20066;DHT22;10193;48.884;9.182;2023-03-30T10:55:42;16.10;79.50
20066;DHT22;10193;48.884;9.182;2023-03-30T10:58:22;16.20;79.70
20066;DHT22;10193;48.884;9.182;2023-03-30T11:01:02;16.30;79.30
20066;DHT22;10193;48.884;9.182;2023-03-30T11:03:32;16.30;79.50
20066;DHT22;10193;48.884;9.182;2023-03-30T11:06:03;16.40;79.80
20066;DHT22;10193;48.884;9.182;2023-03-30T11:08:34;16.50;79.70
20066;DHT22;10193;48.884;9.182;2023-03-30T11:11:04;16.60;80.10
20066;DHT22;10193;48.884;9.182;2023-03-30T11:13:35;16.70;80.60
20066;DHT22;10193;48.884;9.182;2023-03-30T11:16:07;16.80;80.80
20066;DHT22;10193;48.884;9.182;2023-03-30T11:18:40;16.90;81.00
20066;DHT22;10193;48.884;9.182;2023-03-30T11:21:11;17.10;81.20
20066;DHT22;10193;48.884;9.182;2023-03-30T11:23:46;17.20;80.70
20066;DHT22;10193;48.884;9.182;2023-03-30T11:26:19;17.40;80.30
20066;DHT22;10193;48.884;9.182;2023-03-30T11:28:53;17.50;79.60
20066;DHT22;10193;48.884;9.182;2023-03-30T11:31:32;17.60;79.20
20066;DHT22;10193;48.884;9.182;2023-03-30T11:34:11;17.70;78.60
20066;DHT22;10193;48.884;9.182;2023-03-30T11:36:43;17.80;78.30
20066;DHT22;10193;48.884;9.182;2023-03-30T11:39:13;17.90;78.40
20066;DHT22;10193;48.884;9.182;2023-03-30T11:41:43;17.90;78.10
20066;DHT22;10193;48.884;9.182;2023-03-30T11:44:12;18.00;77.80
20066;DHT22;10193;48.884;9.182;2023-03-30T11:46:48;18.10;77.80
20066;DHT22;10193;48.884;9.182;2023-03-30T11:49:27;18.10;76.90
20066;DHT22;10193;48.884;9.182;2023-03-30T11:52:06;18.20;77.00
20066;DHT22;10193;48.884;9.182;2023-03-30T11:54:51;18.20;76.80
20066;DHT22;10193;48.884;9.182;2023-03-30T11:57:32;18.30;76.60
20066;DHT22;10193;48.884;9.182;2023-03-30T12:00:17;18.30;77.30
20066;DHT22;10193;48.884;9.182;2023-03-30T12:02:52;18.40;77.30
20066;DHT22;10193;48.884;9.182;2023-03-30T12:05:27;18.40;77.70
20066;DHT22;10193;48.884;9.182;2023-03-30T12:08:02;18.50;77.70
20066;DHT22;10193;48.884;9.182;2023-03-30T12:10:34;18.60;77.50
20066;DHT22;10193;48.884;9.182;2023-03-30T12:13:02;18.70;77.50
20066;DHT22;10193;48.884;9.182;2023-03-30T12:15:35;18.70;77.20
20066;DHT22;10193;48.884;9.182;2023-03-30T12:18:14;18.80;77.00
20066;DHT22;10193;48.884;9.182;2023-03-30T12:20:45;18.90;76.50
20066;DHT22;10193;48.884;9.182;2023-03-30T12:23:21;18.90;76.60
20066;DHT22;10193;48.884;9.182;2023-03-30T12:26:05;18.90;76.50
20066;DHT22;10193;48.884;9.182;2023-03-30T12:28:44;19.00;76.20
20066;DHT22;10193;48.884;9.182;2023-03-30T12:31:11;19.00;76.20
20066;DHT22;10193;48.884;9.182;2023-03-30T12:33:46;19.10;77.20
20066;DHT22;10193;48.884;9.182;2023-03-30T12:36:31;19.20;76.30
20066;DHT22;10193;48.884;9.182;2023-03-30T12:39:05;19.30;76.00
20066;DHT22;10193;48.884;9.182;2023-03-30T12:41:40;19.50;77.00
20066;DHT22;10193;48.884;9.182;2023-03-30T12:44:23;19.60;76.30
20066;DHT22;10193;48.884;9.182;2023-03-30T12:47:03;19.70;75.20
20066;DHT22;10193;48.884;9.182;2023-03-30T12:49:45;19.80;75.80
20066;DHT22;10193;48.884;9.182;2023-03-30T12:52:25;19.80;74.70
20066;DHT22;10193;48.884;9.182;2023-03-30T12:55:16;19.90;74.60
20066;DHT22;10193;48.884;9.182;2023-03-30T12:57:57;20.00;73.40
20066;DHT22;10193;48.884;9.182;2023-03-30T13:00:40;20.00;73.40
20066;DHT22;10193;48.884;9.182;2023-03-30T13:03:19;20.10;72.90
20066;DHT22;10193;48.884;9.182;2023-03-30T13:05:53;20.10;73.00
20066;DHT22;10193;48.884;9.182;2023-03-30T13:08:26;20.10;73.10
20066;DHT22;10193;48.884;9.182;2023-03-30T13:11:06;20.10;72.70
20066;DHT22;10193;48.884;9.182;2023-03-30T13:14:13;20.10;72.50
20066;DHT22;10193;48.884;9.182;2023-03-30T13:17:09;20.10;70.00
20066;DHT22;10193;48.884;9.182;2023-03-30T13:19:43;20.10;70.80
20066;DHT22;10193;48.884;9.182;2023-03-30T13:22:31;20.10;71.40
20066;DHT22;10193;48.884;9.182;2023-03-30T13:24:59;20.00;69.30
20066;DHT22;10193;48.884;9.182;2023-03-30T13:27:30;20.00;70.30
20066;DHT22;10193;48.884;9.182;2023-03-30T13:29:59;19.90;69.70
20066;DHT22;10193;48.884;9.182;2023-03-30T13:32:56;19.90;70.00
20066;DHT22;10193;48.884;9.182;2023-03-30T13:35:32;19.80;68.20
20066;DHT22;10193;48.884;9.182;2023-03-30T13:38:27;19.80;69.70
20066;DHT22;10193;48.884;9.182;2023-03-30T13:41:04;19.80;67.90
20066;DHT22;10193;48.884;9.182;2023-03-30T13:43:47;19.70;68.10
20066;DHT22;10193;48.884;9.182;2023-03-30T13:46:24;19.60;67.20
20066;DHT22;10193;48.884;9.182;2023-03-30T13:49:01;19.60;67.70
20066;DHT22;10193;48.884;9.182;2023-03-30T13:51:32;19.60;68.60
20066;DHT22;10193;48.884;9.182;2023-03-30T13:54:03;19.60;69.00
20066;DHT22;10193;48.884;9.182;2023-03-30T13:56:39;19.60;67.90
20066;DHT22;10193;48.884;9.182;2023-03-30T13:59:11;19.70;67.80
20066;DHT22;10193;48.884;9.182;2023-03-30T14:01:40;19.60;68.10
20066;DHT22;10193;48.884;9.182;2023-03-30T14:04:11;19.70;68.00
20066;DHT22;10193;48.884;9.182;2023-03-30T14:06:41;19.60;67.70
20066;DHT22;10193;48.884;9.182;2023-03-30T14:09:13;19.60;67.40
20066;DHT22;10193;48.884;9.182;2023-03-30T14:11:45;19.60;67.10
20066;DHT22;10193;48.884;9.182;2023-03-30T14:14:15;19.60;67.20
20066;DHT22;10193;48.884;9.182;2023-03-30T14:16:43;19.50;66.80
20066;DHT22;10193;48.884;9.182;2023-03-30T14:19:18;19.50;67.10
20066;DHT22;10193;48.884;9.182;2023-03-30T14:21:47;19.40;66.30
20066;DHT22;10193;48.884;9.182;2023-03-30T14:24:17;19.40;67.30
20066;DHT22;10193;48.884;9.182;2023-03-30T14:26:46;19.40;67.00
20066;DHT22;10193;48.884;9.182;2023-03-30T14:29:16;19.30;66.90
20066;DHT22;10193;48.884;9.182;2023-03-30T14:31:43;19.30;66.80
20066;DHT22;10193;48.884;9.182;2023-03-30T14:34:23;19.30;66.30
20066;DHT22;10193;48.884;9.182;2023-03-30T14:36:50;19.20;64.60
20066;DHT22;10193;48.884;9.182;2023-03-30T14:39:20;19.20;65.50
20066;DHT22;10193;48.884;9.182;2023-03-30T14:41:48;19.20;65.20
20066;DHT22;10193;48.884;9.182;2023-03-30T14:44:17;19.00;64.70
20066;DHT22;10193;48.884;9.182;2023-03-30T14:46:46;19.00;64.30
20066;DHT22;10193;48.884;9.182;2023-03-30T14:49:16;18.90;63.50
20066;DHT22;10193;48.884;9.182;2023-03-30T14:51:46;18.80;62.60
20066;DHT22;10193;48.884;9.182;2023-03-30T14:54:16;18.60;62.20
20066;DHT22;10193;48.884;9.182;2023-03-30T14:56:54;18.30;61.80
20066;DHT22;10193;48.884;9.182;2023-03-30T14:59:22;18.00;61.80
20066;DHT22;10193;48.884;9.182;2023-03-30T15:01:50;17.80;62.00
20066;DHT22;10193;48.884;9.182;2023-03-30T15:04:17;17.40;62.90
20066;DHT22;10193;48.884;9.182;2023-03-30T15:06:45;17.10;63.80
20066;DHT22;10193;48.884;9.182;2023-03-30T15:09:15;16.90;64.70
20066;DHT22;10193;48.884;9.182;2023-03-30T15:11:46;16.80;65.40
20066;DHT22;10193;48.884;9.182;2023-03-30T15:14:16;16.70;66.20
20066;DHT22;10193;48.884;9.182;2023-03-30T15:16:47;16.70;66.90
20066;DHT22;10193;48.884;9.182;2023-03-30T15:19:25;16.70;67.30
20066;DHT22;10193;48.884;9.182;2023-03-30T15:21:54;16.70;67.30
20066;DHT22;10193;48.884;9.182;2023-03-30T15:24:25;16.80;67.50
20066;DHT22;10193;48.884;9.182;2023-03-30T15:26:56;16.80;67.20
20066;DHT22;10193;48.884;9.182;2023-03-30T15:29:24;16.90;67.50
20066;DHT22;10193;48.884;9.182;2023-03-30T15:31:58;17.00;67.60
20066;DHT22;10193;48.884;9.182;2023-03-30T15:34:25;17.00;67.40
20066;DHT22;10193;48.884;9.182;2023-03-30T15:36:53;17.10;67.70
20066;DHT22;10193;48.884;9.182;2023-03-30T15:39:23;17.10;67.70
20066;DHT22;10193;48.884;9.182;2023-03-30T15:41:59;17.20;68.10
20066;DHT22;10193;48.884;9.182;2023-03-30T15:44:26;17.30;68.30
20066;DHT22;10193;48.884;9.182;2023-03-30T15:46:55;17.40;68.80
20066;DHT22;10193;48.884;9.182;2023-03-30T15:49:28;17.40;69.60
20066;DHT22;10193;48.884;9.182;2023-03-30T15:51:57;17.50;68.70
20066;DHT22;10193;48.884;9.182;2023-03-30T15:54:32;17.50;68.70
20066;DHT22;10193;48.884;9.182;2023-03-30T15:57:04;17.50;68.50
20066;DHT22;10193;48.884;9.182;2023-03-30T15:59:36;17.60;68.40
20066;DHT22;10193;48.884;9.182;2023-03-30T16:02:14;17.60;68.10
20066;DHT22;10193;48.884;9.182;2023-03-30T16:04:40;17.60;67.70
20066;DHT22;10193;48.884;9.182;2023-03-30T16:07:13;17.60;67.70
20066;DHT22;10193;48.884;9.182;2023-03-30T16:09:41;17.60;67.10
20066;DHT22;10193;48.884;9.182;2023-03-30T16:12:10;17.60;67.30
20066;DHT22;10193;48.884;9.182;2023-03-30T16:14:39;17.60;67.10
20066;DHT22;10193;48.884;9.182;2023-03-30T16:17:05;17.60;67.20
20066;DHT22;10193;48.884;9.182;2023-03-30T16:19:34;17.50;67.00
20066;DHT22;10193;48.884;9.182;2023-03-30T16:22:02;17.50;66.90
20066;DHT22;10193;48.884;9.182;2023-03-30T16:24:28;17.50;66.60
20066;DHT22;10193;48.884;9.182;2023-03-30T16:26:55;17.50;66.50
20066;DHT22;10193;48.884;9.182;2023-03-30T16:29:23;17.40;66.50
20066;DHT22;10193;48.884;9.182;2023-03-30T16:31:51;17.40;66.50
20066;DHT22;10193;48.884;9.182;2023-03-30T16:34:19;17.40;66.60
20066;DHT22;10193;48.884;9.182;2023-03-30T16:36:46;17.40;66.60
20066;DHT22;10193;48.884;9.182;2023-03-30T16:39:16;17.40;66.50
20066;DHT22;10193;48.884;9.182;2023-03-30T16:41:43;17.30;66.10
20066;DHT22;10193;48.884;9.182;2023-03-30T16:44:10;17.30;66.30
20066;DHT22;10193;48.884;9.182;2023-03-30T16:46:38;17.30;67.10
20066;DHT22;10193;48.884;9.182;2023-03-30T16:49:08;17.30;66.20
20066;DHT22;10193;48.884;9.182;2023-03-30T16:51:36;17.30;66.00
20066;DHT22;10193;48.884;9.182;2023-03-30T16:54:03;17.20;65.70
20066;DHT22;10193;48.884;9.182;2023-03-30T16:56:29;17.20;65.70
20066;DHT22;10193;48.884;9.182;2023-03-30T16:58:56;17.20;65.60
20066;DHT22;10193;48.884;9.182;2023-03-30T17:01:24;17.20;65.40